Flight Track Log - Related Links

Times and Time Zones

All times are in EDT time to prevent confusion due to time zone crossing. See the EJA929 flight status page for this flight to view local times or setup timezone preferences in your user account.

Time Position Orientation Groundspeed Altitude Reporting Facility
EDT Latitude Longitude Course Direction KTS MPH feet Rate Location/Type
Fri 06:41:43 PM 33.6167 -111.9333 334° Northwest 173 199 2,500  Level Phoenix TRACON
Fri 06:42:56 PM 33.6294 -111.9911 285° West 224 258 5,900 3,778 Climbing Albuquerque Center
Fri 06:43:58 PM 33.6944 -112.0544 321° Northwest 259 298 11,000 4,390 Climbing Albuquerque Center
Fri 06:44:59 PM 33.7611 -112.1092 326° Northwest 284 327 14,900 3,707 Climbing Albuquerque Center
Fri 06:46:01 PM 33.8333 -112.1703 325° Northwest 310 357 18,600 2,419 Climbing Albuquerque Center
Fri 06:47:00 PM 34.1553 -112.4085 334° Northwest  Level FlightAware Approximate
Fri 06:47:03 PM 33.9117 -112.2353 325° Northwest 339 390 19,900  Level Albuquerque Center
Fri 06:48:05 PM 33.9983 -112.3081 325° Northwest 374 430 21,900 2,177 Climbing Albuquerque Center
Fri 06:49:07 PM 34.0917 -112.3736 330° Northwest 384 442 24,400 2,419 Climbing Albuquerque Center
Fri 06:50:09 PM 34.1889 -112.4336 333° Northwest 386 444 26,900 2,000 Climbing Albuquerque Center
Fri 06:51:10 PM 34.2911 -112.4961 333° Northwest 406 467 28,500 1,463 Climbing Albuquerque Center
Fri 06:52:12 PM 34.4217 -112.5772 333° Northwest 435 501 29,900 1,113 Climbing Albuquerque Center
Fri 06:53:14 PM 34.5314 -112.6444 333° Northwest 455 524 30,800 919 Climbing Albuquerque Center
Fri 06:54:16 PM 34.6486 -112.7200 332° Northwest 473 544 31,800 976 Climbing Albuquerque Center
Fri 06:55:17 PM 34.7478 -112.8294 318° Northwest 491 565 32,800 976 Climbing Albuquerque Center
Fri 06:56:19 PM 34.8153 -112.9725 300° West 489 563 33,800 1,008 Climbing Albuquerque Center
Fri 06:57:28 PM 34.8964 -113.1464 300° West 490 564 35,000 1,065 Climbing Los Angeles Center
Fri 06:58:23 PM 34.9639 -113.2928 299° West 490 564 36,000 968 Climbing Albuquerque Center
Fri 06:59:32 PM 35.0194 -113.4428 294° West 489 563 37,000 916 Climbing Los Angeles Center
Fri 07:00:34 PM 35.0781 -113.6308 291° West 491 565 38,000 480 Climbing Los Angeles Center
Fri 07:01:37 PM 35.1281 -113.7881 291° West 495 570 38,000  Level Los Angeles Center
Fri 07:02:39 PM 35.1783 -113.9436 292° West 495 570 38,000  Level Los Angeles Center
Fri 07:03:41 PM 35.2342 -114.1161 292° West 488 562 38,000  Level Los Angeles Center
Fri 07:04:43 PM 35.2811 -114.2700 291° West 486 559 38,000  Level Los Angeles Center
Fri 07:05:45 PM 35.3300 -114.4250 291° West 486 559 38,000  Level Los Angeles Center
Fri 07:06:47 PM 35.3786 -114.5794 291° West 486 559 38,000  Level Los Angeles Center
Fri 07:07:49 PM 35.4264 -114.7344 291° West 486 559 38,000  Level Los Angeles Center
Fri 07:08:52 PM 35.4978 -114.8742 302° West 483 556 38,000  Level Los Angeles Center
Fri 07:09:54 PM 35.6053 -115.0219 312° West 484 557 38,000  Level Los Angeles Center
Fri 07:10:56 PM 35.6942 -115.1472 311° West 484 557 38,000  Level Los Angeles Center
Fri 07:11:58 PM 35.7839 -115.2736 311° West 485 558 38,000  Level Los Angeles Center
Fri 07:13:00 PM 35.8725 -115.4008 311° West 487 560 38,000  Level Los Angeles Center
Fri 07:14:02 PM 35.9611 -115.5258 311° West 486 559 38,000  Level Los Angeles Center
Fri 07:15:04 PM 36.0508 -115.6539 311° West 487 560 38,000  Level Los Angeles Center
Fri 07:16:07 PM 36.1394 -115.7825 310° West 487 560 38,000  Level Los Angeles Center
Fri 07:17:09 PM 36.2394 -115.9303 310° West 487 560 38,000  Level Los Angeles Center
Fri 07:18:11 PM 36.3272 -116.0531 312° West 481 554 38,000  Level Los Angeles Center
Fri 07:19:13 PM 36.4144 -116.1800 311° West 481 554 38,000  Level Los Angeles Center
Fri 07:20:15 PM 36.5067 -116.3119 311° West 481 554 38,000  Level Los Angeles Center
Fri 07:21:17 PM 36.6056 -116.4592 310° West 481 554 38,000  Level Los Angeles Center
Fri 07:22:19 PM 36.6925 -116.5872 310° West 481 554 38,000  Level Los Angeles Center
Fri 07:23:22 PM 36.7786 -116.7142 310° West 481 554 38,000  Level Los Angeles Center
Fri 07:24:24 PM 36.8831 -116.8150 322° Northwest 480 552 38,000  Level Los Angeles Center
Fri 07:25:26 PM 36.9947 -116.9089 326° Northwest 479 551 38,000  Level Los Angeles Center
Fri 07:26:28 PM 37.1053 -117.0025 326° Northwest 479 551 38,000  Level Los Angeles Center
Fri 07:27:30 PM 37.1969 -117.1233 314° West 486 559 38,000  Level Los Angeles Center
Fri 07:28:32 PM 37.2639 -117.3061 295° West 488 562 38,000  Level Los Angeles Center
Fri 07:29:34 PM 37.2817 -117.4783 277° West 493 567 38,000  Level Los Angeles Center
Fri 07:30:36 PM 37.3008 -117.6481 278° West 492 566 38,000  Level Los Angeles Center
Fri 07:31:39 PM 37.3189 -117.8158 278° West 488 562 38,000  Level Los Angeles Center
Fri 07:32:41 PM 37.3392 -117.9856 279° West 488 562 38,000  Level Los Angeles Center
Fri 07:33:43 PM 37.3572 -118.1550 278° West 488 562 38,000  Level Los Angeles Center
Fri 07:34:45 PM 37.3753 -118.3197 278° West 488 562 38,000  Level Los Angeles Center
Fri 07:35:47 PM 37.3972 -118.5200 278° West 486 559 38,000  Level Los Angeles Center
Fri 07:36:49 PM 37.4153 -118.6958 277° West 487 560 38,000  Level Los Angeles Center
Fri 07:37:55 PM 37.4325 -118.8786 277° West 486 559 38,000  Level Oakland Center
Fri 07:38:56 PM 37.4494 -119.0458 277° West 486 559 38,000  Level Oakland Center
Fri 07:39:58 PM 37.4664 -119.2133 277° West 485 558 38,000  Level Oakland Center
Fri 07:41:00 PM 37.4831 -119.3803 277° West 485 558 38,000  Level Oakland Center
Fri 07:42:01 PM 37.4994 -119.5517 277° West 485 558 38,000  Level Oakland Center
Fri 07:43:03 PM 37.5150 -119.7194 277° West 484 557 38,000 -244 Level Oakland Center
Fri 07:44:04 PM 37.5311 -119.8872 277° West 484 557 37,500 -1,707 Descending Oakland Center
Fri 07:45:06 PM 37.5497 -120.0853 277° West 477 549 34,500 -2,710 Descending Oakland Center
Fri 07:46:08 PM 37.5650 -120.2550 277° West 482 555 31,900 -2,537 Descending Oakland Center
Fri 07:47:09 PM 37.5833 -120.4333 277° West 506 582 29,300 -2,619 Descending Northern Cal TRACON
Fri 07:48:14 PM 37.6000 -120.6167 277° West 488 562 26,400 -2,496 Descending Northern Cal TRACON
Fri 07:49:14 PM 37.6167 -120.7667 278° West 460 529 24,100 -2,331 Descending Northern Cal TRACON
Fri 07:50:15 PM 37.6167 -120.9333 270° West 450 518 21,700 -2,380 Descending Northern Cal TRACON
Fri 07:51:15 PM 37.6167 -121.0833 270° West 444 511 19,300 -2,350 Descending Northern Cal TRACON
Fri 07:52:15 PM 37.6000 -121.2333 262° West 429 494 17,000 -2,100 Descending Northern Cal TRACON
Fri 07:53:15 PM 37.5833 -121.3500 260° West 362 417 15,100 -1,800 Descending Northern Cal TRACON
Fri 07:54:15 PM 37.5667 -121.4667 260° West 310 357 13,400 -1,650 Descending Northern Cal TRACON
Fri 07:55:15 PM 37.5500 -121.5667 258° West 289 333 11,800 -1,450 Descending Northern Cal TRACON
Fri 07:56:15 PM 37.5333 -121.6667 258° West 284 327 10,500 -1,200 Descending Northern Cal TRACON
Fri 07:57:15 PM 37.5167 -121.7667 258° West 279 321 9,400 -1,100 Descending Northern Cal TRACON
Fri 07:58:15 PM 37.5000 -121.8500 256° West 270 311 8,300 -900 Descending Northern Cal TRACON
Fri 07:59:15 PM 37.5000 -121.9500 270° West 265 305 7,600 -1,050 Descending Northern Cal TRACON
Fri 08:00:15 PM 37.5167 -122.0333 284° West 269 310 6,200 -1,200 Descending Northern Cal TRACON
Fri 08:01:15 PM 37.5333 -122.1000 288° West 198 228 5,200 -1,500 Descending Northern Cal TRACON
Fri 08:02:15 PM 37.5500 -122.1667 288° West 190 219 3,200 -1,414 Descending Northern Cal TRACON
Fri 08:03:35 PM 37.5781 -122.2456 294° West 197 227 1,900 -1,014 Descending Oakland Center
Fri 08:04:37 PM 37.5950 -122.3053 290° West 191 220 800 -774 Descending Oakland Center
Fri 08:05:39 PM 37.6083 -122.3467 292° West 152 175 300 -341 Descending Oakland Center
Fri 08:06:40 PM 37.6242 -122.3853 297° West 147 169 100 -197 Descending Oakland Center
Fri 08:08:00 PM 37.6167 -122.3667 90° East  Level FlightAware Approximate

Login

Don't have an account? Register now (free) for customized features, flight alerts, and more!